sensor_id;sensor_type;location;lat;lon;timestamp;temperature;humidity
50758;DHT22;36732;47.980;11.652;2024-02-23T00:00:35;11.70;68.30
50758;DHT22;36732;47.980;11.652;2024-02-23T00:03:00;11.70;68.90
50758;DHT22;36732;47.980;11.652;2024-02-23T00:05:26;11.70;68.30
50758;DHT22;36732;47.980;11.652;2024-02-23T00:07:52;11.60;68.10
50758;DHT22;36732;47.980;11.652;2024-02-23T00:10:17;11.60;68.10
50758;DHT22;36732;47.980;11.652;2024-02-23T00:12:43;11.60;68.10
50758;DHT22;36732;47.980;11.652;2024-02-23T00:15:10;11.60;68.10
50758;DHT22;36732;47.980;11.652;2024-02-23T00:17:35;11.60;68.10
50758;DHT22;36732;47.980;11.652;2024-02-23T00:20:01;11.60;67.90
50758;DHT22;36732;47.980;11.652;2024-02-23T00:22:27;11.60;67.90
50758;DHT22;36732;47.980;11.652;2024-02-23T00:24:53;11.60;67.70
50758;DHT22;36732;47.980;11.652;2024-02-23T00:27:18;11.50;67.40
50758;DHT22;36732;47.980;11.652;2024-02-23T00:29:44;11.50;67.50
50758;DHT22;36732;47.980;11.652;2024-02-23T00:32:10;11.50;67.50
50758;DHT22;36732;47.980;11.652;2024-02-23T00:34:35;11.50;67.50
50758;DHT22;36732;47.980;11.652;2024-02-23T00:37:02;11.50;67.30
50758;DHT22;36732;47.980;11.652;2024-02-23T00:39:28;11.50;67.30
50758;DHT22;36732;47.980;11.652;2024-02-23T00:41:54;11.50;67.30
50758;DHT22;36732;47.980;11.652;2024-02-23T00:44:20;11.50;67.10
50758;DHT22;36732;47.980;11.652;2024-02-23T00:46:46;11.50;66.90
50758;DHT22;36732;47.980;11.652;2024-02-23T00:49:11;11.40;66.80
50758;DHT22;36732;47.980;11.652;2024-02-23T00:51:37;11.40;66.80
50758;DHT22;36732;47.980;11.652;2024-02-23T00:54:03;11.40;66.80
50758;DHT22;36732;47.980;11.652;2024-02-23T00:56:28;11.40;66.60
50758;DHT22;36732;47.980;11.652;2024-02-23T00:58:54;11.40;66.60
50758;DHT22;36732;47.980;11.652;2024-02-23T01:01:20;11.40;66.60
50758;DHT22;36732;47.980;11.652;2024-02-23T01:03:45;11.30;66.60
50758;DHT22;36732;47.980;11.652;2024-02-23T01:06:11;11.40;66.80
50758;DHT22;36732;47.980;11.652;2024-02-23T01:08:36;11.30;66.40
50758;DHT22;36732;47.980;11.652;2024-02-23T01:11:02;11.30;66.40
50758;DHT22;36732;47.980;11.652;2024-02-23T01:13:28;11.30;66.50
50758;DHT22;36732;47.980;11.652;2024-02-23T01:15:54;11.30;66.30
50758;DHT22;36732;47.980;11.652;2024-02-23T01:18:20;11.30;66.30
50758;DHT22;36732;47.980;11.652;2024-02-23T01:20:45;11.30;66.30
50758;DHT22;36732;47.980;11.652;2024-02-23T01:23:11;11.30;66.30
50758;DHT22;36732;47.980;11.652;2024-02-23T01:25:37;11.30;66.20
50758;DHT22;36732;47.980;11.652;2024-02-23T01:28:03;11.30;66.30
50758;DHT22;36732;47.980;11.652;2024-02-23T01:30:29;11.30;66.30
50758;DHT22;36732;47.980;11.652;2024-02-23T01:32:54;11.20;66.10
50758;DHT22;36732;47.980;11.652;2024-02-23T01:35:20;11.30;66.00
50758;DHT22;36732;47.980;11.652;2024-02-23T01:37:46;11.20;65.90
50758;DHT22;36732;47.980;11.652;2024-02-23T01:40:12;11.20;66.00
50758;DHT22;36732;47.980;11.652;2024-02-23T01:42:38;11.30;66.00
50758;DHT22;36732;47.980;11.652;2024-02-23T01:45:04;11.20;65.90
50758;DHT22;36732;47.980;11.652;2024-02-23T01:47:30;11.20;65.90
50758;DHT22;36732;47.980;11.652;2024-02-23T01:49:58;11.20;65.80
50758;DHT22;36732;47.980;11.652;2024-02-23T01:52:24;11.20;65.70
50758;DHT22;36732;47.980;11.652;2024-02-23T01:54:51;11.20;65.70
50758;DHT22;36732;47.980;11.652;2024-02-23T01:57:17;11.20;65.60
50758;DHT22;36732;47.980;11.652;2024-02-23T01:59:43;11.20;65.60
50758;DHT22;36732;47.980;11.652;2024-02-23T02:02:09;11.20;65.60
50758;DHT22;36732;47.980;11.652;2024-02-23T02:04:35;11.20;65.50
50758;DHT22;36732;47.980;11.652;2024-02-23T02:07:01;11.10;65.40
50758;DHT22;36732;47.980;11.652;2024-02-23T02:09:27;11.20;65.30
50758;DHT22;36732;47.980;11.652;2024-02-23T02:11:53;11.10;65.20
50758;DHT22;36732;47.980;11.652;2024-02-23T02:14:18;11.10;65.20
50758;DHT22;36732;47.980;11.652;2024-02-23T02:16:44;11.10;65.10
50758;DHT22;36732;47.980;11.652;2024-02-23T02:19:11;11.10;65.10
50758;DHT22;36732;47.980;11.652;2024-02-23T02:21:37;11.10;64.90
50758;DHT22;36732;47.980;11.652;2024-02-23T02:24:03;11.10;64.90
50758;DHT22;36732;47.980;11.652;2024-02-23T02:26:30;11.10;64.90
50758;DHT22;36732;47.980;11.652;2024-02-23T02:28:56;11.10;64.70
50758;DHT22;36732;47.980;11.652;2024-02-23T02:31:22;11.10;64.70
50758;DHT22;36732;47.980;11.652;2024-02-23T02:33:48;11.00;64.60
50758;DHT22;36732;47.980;11.652;2024-02-23T02:36:13;11.00;64.30
50758;DHT22;36732;47.980;11.652;2024-02-23T02:38:39;11.00;64.40
50758;DHT22;36732;47.980;11.652;2024-02-23T02:41:05;11.10;64.40
50758;DHT22;36732;47.980;11.652;2024-02-23T02:43:31;11.00;64.10
50758;DHT22;36732;47.980;11.652;2024-02-23T02:45:57;11.00;64.10
50758;DHT22;36732;47.980;11.652;2024-02-23T02:48:23;11.00;63.90
50758;DHT22;36732;47.980;11.652;2024-02-23T02:50:50;11.00;63.90
50758;DHT22;36732;47.980;11.652;2024-02-23T02:53:16;11.00;63.90
50758;DHT22;36732;47.980;11.652;2024-02-23T02:55:43;11.00;63.90
50758;DHT22;36732;47.980;11.652;2024-02-23T02:58:11;11.00;63.70
50758;DHT22;36732;47.980;11.652;2024-02-23T03:00:37;10.90;63.40
50758;DHT22;36732;47.980;11.652;2024-02-23T03:03:03;11.00;63.60
50758;DHT22;36732;47.980;11.652;2024-02-23T03:05:29;11.00;63.50
50758;DHT22;36732;47.980;11.652;2024-02-23T03:07:54;11.00;63.40
50758;DHT22;36732;47.980;11.652;2024-02-23T03:10:20;10.90;63.40
50758;DHT22;36732;47.980;11.652;2024-02-23T03:12:46;10.90;63.40
50758;DHT22;36732;47.980;11.652;2024-02-23T03:15:12;10.90;63.30
50758;DHT22;36732;47.980;11.652;2024-02-23T03:17:37;10.90;63.10
50758;DHT22;36732;47.980;11.652;2024-02-23T03:20:03;10.90;63.20
50758;DHT22;36732;47.980;11.652;2024-02-23T03:22:36;10.90;63.20
50758;DHT22;36732;47.980;11.652;2024-02-23T03:25:03;10.90;63.20
50758;DHT22;36732;47.980;11.652;2024-02-23T03:27:34;10.90;63.00
50758;DHT22;36732;47.980;11.652;2024-02-23T03:30:04;10.90;62.90
50758;DHT22;36732;47.980;11.652;2024-02-23T03:32:31;10.90;63.00
50758;DHT22;36732;47.980;11.652;2024-02-23T03:35:07;10.90;62.90
50758;DHT22;36732;47.980;11.652;2024-02-23T03:37:33;10.90;62.90
50758;DHT22;36732;47.980;11.652;2024-02-23T03:39:59;10.90;62.80
50758;DHT22;36732;47.980;11.652;2024-02-23T03:42:26;10.90;62.70
50758;DHT22;36732;47.980;11.652;2024-02-23T03:44:52;10.90;62.70
50758;DHT22;36732;47.980;11.652;2024-02-23T03:47:18;10.90;62.70
50758;DHT22;36732;47.980;11.652;2024-02-23T03:49:44;10.90;62.60
50758;DHT22;36732;47.980;11.652;2024-02-23T03:52:10;10.90;62.50
50758;DHT22;36732;47.980;11.652;2024-02-23T03:54:35;10.80;62.30
50758;DHT22;36732;47.980;11.652;2024-02-23T03:57:01;10.90;62.30
50758;DHT22;36732;47.980;11.652;2024-02-23T03:59:28;10.80;62.30
50758;DHT22;36732;47.980;11.652;2024-02-23T04:01:53;10.80;62.30
50758;DHT22;36732;47.980;11.652;2024-02-23T04:04:19;10.80;62.30
50758;DHT22;36732;47.980;11.652;2024-02-23T04:06:45;10.80;62.30
50758;DHT22;36732;47.980;11.652;2024-02-23T04:09:11;10.80;62.30
50758;DHT22;36732;47.980;11.652;2024-02-23T04:11:37;10.80;62.40
50758;DHT22;36732;47.980;11.652;2024-02-23T04:14:02;10.80;62.40
50758;DHT22;36732;47.980;11.652;2024-02-23T04:16:30;10.80;62.40
50758;DHT22;36732;47.980;11.652;2024-02-23T04:18:56;10.80;62.30
50758;DHT22;36732;47.980;11.652;2024-02-23T04:21:22;10.80;62.40
50758;DHT22;36732;47.980;11.652;2024-02-23T04:23:48;10.80;62.40
50758;DHT22;36732;47.980;11.652;2024-02-23T04:26:14;10.80;62.40
50758;DHT22;36732;47.980;11.652;2024-02-23T04:28:42;10.80;62.40
50758;DHT22;36732;47.980;11.652;2024-02-23T04:31:09;10.70;62.40
50758;DHT22;36732;47.980;11.652;2024-02-23T04:33:35;10.70;62.50
50758;DHT22;36732;47.980;11.652;2024-02-23T04:36:03;10.70;62.40
50758;DHT22;36732;47.980;11.652;2024-02-23T04:38:30;10.70;62.40
50758;DHT22;36732;47.980;11.652;2024-02-23T04:40:56;10.80;62.50
50758;DHT22;36732;47.980;11.652;2024-02-23T04:43:22;10.70;62.50
50758;DHT22;36732;47.980;11.652;2024-02-23T04:45:49;10.70;62.50
50758;DHT22;36732;47.980;11.652;2024-02-23T04:48:14;10.70;62.50
50758;DHT22;36732;47.980;11.652;2024-02-23T04:50:40;10.70;62.60
50758;DHT22;36732;47.980;11.652;2024-02-23T04:53:06;10.70;62.60
50758;DHT22;36732;47.980;11.652;2024-02-23T04:55:33;10.70;62.60
50758;DHT22;36732;47.980;11.652;2024-02-23T04:57:58;10.70;62.60
50758;DHT22;36732;47.980;11.652;2024-02-23T05:00:24;10.70;62.70
50758;DHT22;36732;47.980;11.652;2024-02-23T05:02:54;10.70;62.70
50758;DHT22;36732;47.980;11.652;2024-02-23T05:05:19;10.70;62.70
50758;DHT22;36732;47.980;11.652;2024-02-23T05:07:47;10.70;62.70
50758;DHT22;36732;47.980;11.652;2024-02-23T05:10:12;10.70;62.80
50758;DHT22;36732;47.980;11.652;2024-02-23T05:12:38;10.70;62.70
50758;DHT22;36732;47.980;11.652;2024-02-23T05:15:04;10.60;62.60
50758;DHT22;36732;47.980;11.652;2024-02-23T05:17:30;10.60;62.60
50758;DHT22;36732;47.980;11.652;2024-02-23T05:19:56;10.60;62.60
50758;DHT22;36732;47.980;11.652;2024-02-23T05:22:21;10.60;62.50
50758;DHT22;36732;47.980;11.652;2024-02-23T05:24:47;10.60;62.40
50758;DHT22;36732;47.980;11.652;2024-02-23T05:27:13;10.60;62.50
50758;DHT22;36732;47.980;11.652;2024-02-23T05:29:39;10.60;62.50
50758;DHT22;36732;47.980;11.652;2024-02-23T05:32:04;10.60;62.50
50758;DHT22;36732;47.980;11.652;2024-02-23T05:34:30;10.60;62.50
50758;DHT22;36732;47.980;11.652;2024-02-23T05:36:56;10.60;62.50
50758;DHT22;36732;47.980;11.652;2024-02-23T05:39:22;10.60;62.40
50758;DHT22;36732;47.980;11.652;2024-02-23T05:41:47;10.50;62.40
50758;DHT22;36732;47.980;11.652;2024-02-23T05:44:13;10.50;62.50
50758;DHT22;36732;47.980;11.652;2024-02-23T05:46:39;10.50;62.40
50758;DHT22;36732;47.980;11.652;2024-02-23T05:49:04;10.50;62.50
50758;DHT22;36732;47.980;11.652;2024-02-23T05:51:30;10.50;62.50
50758;DHT22;36732;47.980;11.652;2024-02-23T05:53:57;10.50;62.40
50758;DHT22;36732;47.980;11.652;2024-02-23T05:56:23;10.50;62.60
50758;DHT22;36732;47.980;11.652;2024-02-23T05:58:50;10.50;62.10
50758;DHT22;36732;47.980;11.652;2024-02-23T06:01:17;10.50;61.90
50758;DHT22;36732;47.980;11.652;2024-02-23T06:03:44;10.50;61.90
50758;DHT22;36732;47.980;11.652;2024-02-23T06:06:10;10.50;61.70
50758;DHT22;36732;47.980;11.652;2024-02-23T06:08:36;10.50;61.30
50758;DHT22;36732;47.980;11.652;2024-02-23T06:11:03;10.50;61.30
50758;DHT22;36732;47.980;11.652;2024-02-23T06:13:30;10.40;61.20
50758;DHT22;36732;47.980;11.652;2024-02-23T06:15:56;10.40;61.20
50758;DHT22;36732;47.980;11.652;2024-02-23T06:18:22;10.40;61.00
50758;DHT22;36732;47.980;11.652;2024-02-23T06:20:49;10.40;60.80
50758;DHT22;36732;47.980;11.652;2024-02-23T06:23:15;10.40;60.60
50758;DHT22;36732;47.980;11.652;2024-02-23T06:25:41;10.30;60.50
50758;DHT22;36732;47.980;11.652;2024-02-23T06:28:07;10.30;60.40
50758;DHT22;36732;47.980;11.652;2024-02-23T06:30:32;10.30;60.30
50758;DHT22;36732;47.980;11.652;2024-02-23T06:32:58;10.30;60.20
50758;DHT22;36732;47.980;11.652;2024-02-23T06:35:24;10.30;60.20
50758;DHT22;36732;47.980;11.652;2024-02-23T06:37:49;10.30;60.00
50758;DHT22;36732;47.980;11.652;2024-02-23T06:40:15;10.30;60.00
50758;DHT22;36732;47.980;11.652;2024-02-23T06:42:41;10.30;60.00
50758;DHT22;36732;47.980;11.652;2024-02-23T06:45:07;10.30;60.00
50758;DHT22;36732;47.980;11.652;2024-02-23T06:47:33;10.20;59.90
50758;DHT22;36732;47.980;11.652;2024-02-23T06:49:59;10.20;60.00
50758;DHT22;36732;47.980;11.652;2024-02-23T06:52:25;10.20;59.90
50758;DHT22;36732;47.980;11.652;2024-02-23T06:54:51;10.20;59.80
50758;DHT22;36732;47.980;11.652;2024-02-23T06:57:17;10.20;59.80
50758;DHT22;36732;47.980;11.652;2024-02-23T06:59:43;10.20;59.60
50758;DHT22;36732;47.980;11.652;2024-02-23T07:02:09;10.20;59.70
50758;DHT22;36732;47.980;11.652;2024-02-23T07:04:35;10.20;59.80
50758;DHT22;36732;47.980;11.652;2024-02-23T07:07:00;10.20;59.90
50758;DHT22;36732;47.980;11.652;2024-02-23T07:09:32;10.10;59.80
50758;DHT22;36732;47.980;11.652;2024-02-23T07:11:58;10.10;59.80
50758;DHT22;36732;47.980;11.652;2024-02-23T07:14:24;10.20;59.90
50758;DHT22;36732;47.980;11.652;2024-02-23T07:16:50;10.10;59.90
50758;DHT22;36732;47.980;11.652;2024-02-23T07:19:17;10.10;59.90
50758;DHT22;36732;47.980;11.652;2024-02-23T07:21:45;10.10;59.80
50758;DHT22;36732;47.980;11.652;2024-02-23T07:24:11;10.10;59.90
50758;DHT22;36732;47.980;11.652;2024-02-23T07:26:37;10.10;59.80
50758;DHT22;36732;47.980;11.652;2024-02-23T07:29:02;10.10;59.80
50758;DHT22;36732;47.980;11.652;2024-02-23T07:31:28;10.10;60.00
50758;DHT22;36732;47.980;11.652;2024-02-23T07:33:53;10.10;59.90
50758;DHT22;36732;47.980;11.652;2024-02-23T07:36:19;10.10;59.90
50758;DHT22;36732;47.980;11.652;2024-02-23T07:38:46;10.10;60.00
50758;DHT22;36732;47.980;11.652;2024-02-23T07:41:12;10.10;60.00
50758;DHT22;36732;47.980;11.652;2024-02-23T07:43:39;10.10;59.90
50758;DHT22;36732;47.980;11.652;2024-02-23T07:46:04;10.10;59.90
50758;DHT22;36732;47.980;11.652;2024-02-23T07:48:34;10.10;60.00
50758;DHT22;36732;47.980;11.652;2024-02-23T07:51:01;10.10;60.00
50758;DHT22;36732;47.980;11.652;2024-02-23T07:53:27;10.10;60.00
50758;DHT22;36732;47.980;11.652;2024-02-23T07:55:53;10.10;60.00
50758;DHT22;36732;47.980;11.652;2024-02-23T07:58:19;10.10;60.10
50758;DHT22;36732;47.980;11.652;2024-02-23T08:00:44;10.10;60.10
50758;DHT22;36732;47.980;11.652;2024-02-23T08:03:10;10.10;60.10
50758;DHT22;36732;47.980;11.652;2024-02-23T08:05:36;10.10;60.00
50758;DHT22;36732;47.980;11.652;2024-02-23T08:08:02;10.00;59.90
50758;DHT22;36732;47.980;11.652;2024-02-23T08:10:28;10.00;59.80
50758;DHT22;36732;47.980;11.652;2024-02-23T08:12:53;10.10;59.80
50758;DHT22;36732;47.980;11.652;2024-02-23T08:15:19;10.10;59.50
50758;DHT22;36732;47.980;11.652;2024-02-23T08:17:45;10.00;59.30
50758;DHT22;36732;47.980;11.652;2024-02-23T08:20:11;10.00;59.20
50758;DHT22;36732;47.980;11.652;2024-02-23T08:22:37;10.00;59.20
50758;DHT22;36732;47.980;11.652;2024-02-23T08:25:03;10.10;59.20
50758;DHT22;36732;47.980;11.652;2024-02-23T08:27:30;10.00;59.10
50758;DHT22;36732;47.980;11.652;2024-02-23T08:29:55;10.00;59.30
50758;DHT22;36732;47.980;11.652;2024-02-23T08:32:21;10.00;58.90
50758;DHT22;36732;47.980;11.652;2024-02-23T08:34:47;10.00;59.00
50758;DHT22;36732;47.980;11.652;2024-02-23T08:37:12;10.00;58.60
50758;DHT22;36732;47.980;11.652;2024-02-23T08:39:38;10.00;58.50
50758;DHT22;36732;47.980;11.652;2024-02-23T08:42:04;10.00;58.50
50758;DHT22;36732;47.980;11.652;2024-02-23T08:44:29;10.00;58.50
50758;DHT22;36732;47.980;11.652;2024-02-23T08:46:55;10.00;58.50
50758;DHT22;36732;47.980;11.652;2024-02-23T08:49:21;10.00;58.50
50758;DHT22;36732;47.980;11.652;2024-02-23T08:51:47;10.00;58.60
50758;DHT22;36732;47.980;11.652;2024-02-23T08:54:13;10.00;58.50
50758;DHT22;36732;47.980;11.652;2024-02-23T08:56:39;10.00;58.80
50758;DHT22;36732;47.980;11.652;2024-02-23T08:59:09;10.00;58.90
50758;DHT22;36732;47.980;11.652;2024-02-23T09:01:35;10.00;58.90
50758;DHT22;36732;47.980;11.652;2024-02-23T09:04:01;10.00;58.90
50758;DHT22;36732;47.980;11.652;2024-02-23T09:06:27;10.00;59.00
50758;DHT22;36732;47.980;11.652;2024-02-23T09:08:53;10.00;59.10
50758;DHT22;36732;47.980;11.652;2024-02-23T09:11:18;10.00;59.10
50758;DHT22;36732;47.980;11.652;2024-02-23T09:13:44;10.00;59.10
50758;DHT22;36732;47.980;11.652;2024-02-23T09:16:10;10.00;59.10
50758;DHT22;36732;47.980;11.652;2024-02-23T09:18:36;10.00;59.10
50758;DHT22;36732;47.980;11.652;2024-02-23T09:21:01;10.00;59.20
50758;DHT22;36732;47.980;11.652;2024-02-23T09:23:27;10.00;59.20
50758;DHT22;36732;47.980;11.652;2024-02-23T09:25:53;10.00;59.30
50758;DHT22;36732;47.980;11.652;2024-02-23T09:28:18;10.00;59.40
50758;DHT22;36732;47.980;11.652;2024-02-23T09:30:44;10.00;59.30
50758;DHT22;36732;47.980;11.652;2024-02-23T09:33:10;10.00;59.30
50758;DHT22;36732;47.980;11.652;2024-02-23T09:35:35;10.00;59.40
50758;DHT22;36732;47.980;11.652;2024-02-23T09:38:01;10.00;59.50
50758;DHT22;36732;47.980;11.652;2024-02-23T09:40:27;10.00;59.40
50758;DHT22;36732;47.980;11.652;2024-02-23T09:42:57;10.00;59.50
50758;DHT22;36732;47.980;11.652;2024-02-23T09:45:27;9.90;59.60
50758;DHT22;36732;47.980;11.652;2024-02-23T09:47:57;9.90;59.40
50758;DHT22;36732;47.980;11.652;2024-02-23T09:50:24;9.90;59.40
50758;DHT22;36732;47.980;11.652;2024-02-23T09:52:50;9.90;59.40
50758;DHT22;36732;47.980;11.652;2024-02-23T09:55:23;9.90;59.40
50758;DHT22;36732;47.980;11.652;2024-02-23T09:57:51;9.90;59.40
50758;DHT22;36732;47.980;11.652;2024-02-23T10:00:20;9.90;59.40
50758;DHT22;36732;47.980;11.652;2024-02-23T10:02:46;9.90;59.70
50758;DHT22;36732;47.980;11.652;2024-02-23T10:05:12;9.80;59.60
50758;DHT22;36732;47.980;11.652;2024-02-23T10:07:39;9.80;59.60
50758;DHT22;36732;47.980;11.652;2024-02-23T10:10:09;9.80;59.60
50758;DHT22;36732;47.980;11.652;2024-02-23T10:12:36;9.80;59.60
50758;DHT22;36732;47.980;11.652;2024-02-23T10:15:03;9.80;59.80
50758;DHT22;36732;47.980;11.652;2024-02-23T10:17:30;9.80;59.80
50758;DHT22;36732;47.980;11.652;2024-02-23T10:19:56;9.80;59.80
50758;DHT22;36732;47.980;11.652;2024-02-23T10:22:25;9.80;59.90
50758;DHT22;36732;47.980;11.652;2024-02-23T10:24:51;9.80;59.90
50758;DHT22;36732;47.980;11.652;2024-02-23T10:27:17;9.80;59.90
50758;DHT22;36732;47.980;11.652;2024-02-23T10:29:42;9.80;59.90
50758;DHT22;36732;47.980;11.652;2024-02-23T10:32:12;9.80;59.90
50758;DHT22;36732;47.980;11.652;2024-02-23T10:34:44;9.80;59.80
50758;DHT22;36732;47.980;11.652;2024-02-23T10:37:13;9.80;60.00
50758;DHT22;36732;47.980;11.652;2024-02-23T10:39:38;9.80;59.90
50758;DHT22;36732;47.980;11.652;2024-02-23T10:42:08;9.80;59.90
50758;DHT22;36732;47.980;11.652;2024-02-23T10:44:35;9.80;59.80
50758;DHT22;36732;47.980;11.652;2024-02-23T10:47:02;9.80;59.80
50758;DHT22;36732;47.980;11.652;2024-02-23T10:49:29;9.80;59.90
50758;DHT22;36732;47.980;11.652;2024-02-23T10:51:56;9.80;59.70
50758;DHT22;36732;47.980;11.652;2024-02-23T10:54:22;9.80;59.60
50758;DHT22;36732;47.980;11.652;2024-02-23T10:56:50;9.80;60.20
50758;DHT22;36732;47.980;11.652;2024-02-23T10:59:19;9.80;59.50
50758;DHT22;36732;47.980;11.652;2024-02-23T11:01:49;9.80;59.40
50758;DHT22;36732;47.980;11.652;2024-02-23T11:04:22;9.80;59.60
50758;DHT22;36732;47.980;11.652;2024-02-23T11:06:52;9.80;59.40
50758;DHT22;36732;47.980;11.652;2024-02-23T11:09:23;9.80;59.50
50758;DHT22;36732;47.980;11.652;2024-02-23T11:11:57;9.80;59.40
50758;DHT22;36732;47.980;11.652;2024-02-23T11:14:30;9.80;59.40
50758;DHT22;36732;47.980;11.652;2024-02-23T11:17:03;9.80;59.60
50758;DHT22;36732;47.980;11.652;2024-02-23T11:19:49;9.80;59.60
50758;DHT22;36732;47.980;11.652;2024-02-23T11:22:30;9.80;59.50
50758;DHT22;36732;47.980;11.652;2024-02-23T11:25:04;9.80;59.40
50758;DHT22;36732;47.980;11.652;2024-02-23T11:27:40;9.80;59.30
50758;DHT22;36732;47.980;11.652;2024-02-23T11:30:08;9.80;59.30
50758;DHT22;36732;47.980;11.652;2024-02-23T11:32:40;9.80;59.00
50758;DHT22;36732;47.980;11.652;2024-02-23T11:35:07;9.80;59.00
50758;DHT22;36732;47.980;11.652;2024-02-23T11:37:54;9.80;59.00
50758;DHT22;36732;47.980;11.652;2024-02-23T11:40:28;9.80;58.90
50758;DHT22;36732;47.980;11.652;2024-02-23T11:42:56;9.80;59.10
50758;DHT22;36732;47.980;11.652;2024-02-23T11:45:22;9.80;59.10
50758;DHT22;36732;47.980;11.652;2024-02-23T11:47:47;9.80;58.90
50758;DHT22;36732;47.980;11.652;2024-02-23T11:50:13;9.80;58.70
50758;DHT22;36732;47.980;11.652;2024-02-23T11:52:41;9.80;58.80
50758;DHT22;36732;47.980;11.652;2024-02-23T11:55:07;9.80;58.60
50758;DHT22;36732;47.980;11.652;2024-02-23T11:57:36;9.80;58.50
50758;DHT22;36732;47.980;11.652;2024-02-23T12:00:04;9.80;58.20
50758;DHT22;36732;47.980;11.652;2024-02-23T12:02:33;9.80;58.10
50758;DHT22;36732;47.980;11.652;2024-02-23T12:05:00;9.80;58.20
50758;DHT22;36732;47.980;11.652;2024-02-23T12:07:28;9.80;58.00
50758;DHT22;36732;47.980;11.652;2024-02-23T12:09:55;9.80;57.90
50758;DHT22;36732;47.980;11.652;2024-02-23T12:12:21;9.80;58.00
50758;DHT22;36732;47.980;11.652;2024-02-23T12:14:47;9.80;58.00
50758;DHT22;36732;47.980;11.652;2024-02-23T12:17:13;9.80;58.00
50758;DHT22;36732;47.980;11.652;2024-02-23T12:19:40;9.80;58.00
50758;DHT22;36732;47.980;11.652;2024-02-23T12:22:06;9.80;58.00
50758;DHT22;36732;47.980;11.652;2024-02-23T12:24:32;9.70;58.00
50758;DHT22;36732;47.980;11.652;2024-02-23T12:26:57;9.80;58.00
50758;DHT22;36732;47.980;11.652;2024-02-23T12:29:23;9.70;57.90
50758;DHT22;36732;47.980;11.652;2024-02-23T12:31:49;9.80;57.70
50758;DHT22;36732;47.980;11.652;2024-02-23T12:34:15;9.70;57.60
50758;DHT22;36732;47.980;11.652;2024-02-23T12:36:41;9.70;57.70
50758;DHT22;36732;47.980;11.652;2024-02-23T12:39:08;9.70;57.50
50758;DHT22;36732;47.980;11.652;2024-02-23T12:41:33;9.80;57.60
50758;DHT22;36732;47.980;11.652;2024-02-23T12:43:59;9.70;57.50
50758;DHT22;36732;47.980;11.652;2024-02-23T12:46:25;9.70;57.30
50758;DHT22;36732;47.980;11.652;2024-02-23T12:48:51;9.70;57.10
50758;DHT22;36732;47.980;11.652;2024-02-23T12:51:16;9.70;57.10
50758;DHT22;36732;47.980;11.652;2024-02-23T12:53:43;9.70;57.10
50758;DHT22;36732;47.980;11.652;2024-02-23T12:56:11;9.70;57.00
50758;DHT22;36732;47.980;11.652;2024-02-23T12:58:39;9.70;57.00
50758;DHT22;36732;47.980;11.652;2024-02-23T13:01:07;9.70;57.00
50758;DHT22;36732;47.980;11.652;2024-02-23T13:03:34;9.70;57.10
50758;DHT22;36732;47.980;11.652;2024-02-23T13:06:00;9.70;57.00
50758;DHT22;36732;47.980;11.652;2024-02-23T13:08:26;9.70;56.90
50758;DHT22;36732;47.980;11.652;2024-02-23T13:10:53;9.70;57.00
50758;DHT22;36732;47.980;11.652;2024-02-23T13:13:20;9.70;56.80
50758;DHT22;36732;47.980;11.652;2024-02-23T13:15:47;9.70;56.90
50758;DHT22;36732;47.980;11.652;2024-02-23T13:18:13;9.70;57.70
50758;DHT22;36732;47.980;11.652;2024-02-23T13:20:40;9.70;56.90
50758;DHT22;36732;47.980;11.652;2024-02-23T13:23:09;9.70;57.00
50758;DHT22;36732;47.980;11.652;2024-02-23T13:25:37;9.70;57.00
50758;DHT22;36732;47.980;11.652;2024-02-23T13:28:04;9.70;57.00
50758;DHT22;36732;47.980;11.652;2024-02-23T13:30:30;9.70;57.00
50758;DHT22;36732;47.980;11.652;2024-02-23T13:32:56;9.70;57.10
50758;DHT22;36732;47.980;11.652;2024-02-23T13:35:22;9.70;57.20
50758;DHT22;36732;47.980;11.652;2024-02-23T13:37:48;9.60;57.10
50758;DHT22;36732;47.980;11.652;2024-02-23T13:40:14;9.60;56.90
50758;DHT22;36732;47.980;11.652;2024-02-23T13:42:40;9.70;57.00
50758;DHT22;36732;47.980;11.652;2024-02-23T13:45:07;9.60;57.00
50758;DHT22;36732;47.980;11.652;2024-02-23T13:47:35;9.60;57.00
50758;DHT22;36732;47.980;11.652;2024-02-23T13:50:02;9.60;57.10
50758;DHT22;36732;47.980;11.652;2024-02-23T13:52:28;9.60;57.00
50758;DHT22;36732;47.980;11.652;2024-02-23T13:54:54;9.60;57.00
50758;DHT22;36732;47.980;11.652;2024-02-23T13:57:19;9.70;57.20
50758;DHT22;36732;47.980;11.652;2024-02-23T13:59:45;9.60;57.00
50758;DHT22;36732;47.980;11.652;2024-02-23T14:02:11;9.60;56.90
50758;DHT22;36732;47.980;11.652;2024-02-23T14:04:37;9.60;57.00
50758;DHT22;36732;47.980;11.652;2024-02-23T14:07:03;9.60;57.10
50758;DHT22;36732;47.980;11.652;2024-02-23T14:09:30;9.60;57.20
50758;DHT22;36732;47.980;11.652;2024-02-23T14:11:56;9.60;57.20
50758;DHT22;36732;47.980;11.652;2024-02-23T14:14:22;9.60;57.30
50758;DHT22;36732;47.980;11.652;2024-02-23T14:16:49;9.60;57.30
50758;DHT22;36732;47.980;11.652;2024-02-23T14:19:14;9.60;57.30
50758;DHT22;36732;47.980;11.652;2024-02-23T14:21:40;9.60;57.20
50758;DHT22;36732;47.980;11.652;2024-02-23T14:24:06;9.60;57.10
50758;DHT22;36732;47.980;11.652;2024-02-23T14:26:32;9.60;57.20
50758;DHT22;36732;47.980;11.652;2024-02-23T14:28:58;9.60;57.10
50758;DHT22;36732;47.980;11.652;2024-02-23T14:31:24;9.60;57.80
50758;DHT22;36732;47.980;11.652;2024-02-23T14:33:51;9.50;57.00
50758;DHT22;36732;47.980;11.652;2024-02-23T14:36:18;9.50;57.00
50758;DHT22;36732;47.980;11.652;2024-02-23T14:38:43;9.60;57.00
50758;DHT22;36732;47.980;11.652;2024-02-23T14:41:09;9.50;56.90
50758;DHT22;36732;47.980;11.652;2024-02-23T14:43:36;9.50;56.90
50758;DHT22;36732;47.980;11.652;2024-02-23T14:46:02;9.50;57.00
50758;DHT22;36732;47.980;11.652;2024-02-23T14:48:28;9.50;57.00
50758;DHT22;36732;47.980;11.652;2024-02-23T14:50:54;9.50;57.10
50758;DHT22;36732;47.980;11.652;2024-02-23T14:53:20;9.50;57.00
50758;DHT22;36732;47.980;11.652;2024-02-23T14:55:45;9.50;57.10
50758;DHT22;36732;47.980;11.652;2024-02-23T14:58:12;9.50;57.20
50758;DHT22;36732;47.980;11.652;2024-02-23T15:00:37;9.50;57.20
50758;DHT22;36732;47.980;11.652;2024-02-23T15:03:04;9.50;57.10
50758;DHT22;36732;47.980;11.652;2024-02-23T15:05:29;9.50;57.00
50758;DHT22;36732;47.980;11.652;2024-02-23T15:07:55;9.50;56.90
50758;DHT22;36732;47.980;11.652;2024-02-23T15:10:21;9.50;56.90
50758;DHT22;36732;47.980;11.652;2024-02-23T15:12:47;9.50;57.00
50758;DHT22;36732;47.980;11.652;2024-02-23T15:15:13;9.50;56.90
50758;DHT22;36732;47.980;11.652;2024-02-23T15:17:39;9.50;57.60